Time;durP1;ratioP1;P1;durP2;ratioP2;P2;SDS_P1;SDS_P2;PMS_P1;PMS_P2;Temp;Humidity;BMP_temperature;BMP_pressure;BME280_temperature;BME280_humidity;BME280_pressure;Samples;Min_cycle;Max_cycle;Signal;HPM_P1;HPM_P2
2021/07/07 00:00:07;;;;;;;5.07;1.95;;;;;;;;;;5015421;28;20045;-58
2021/07/07 00:02:35;;;;;;;1.80;1.50;;;;;;;;;;5004513;28;20257;-59
2021/07/07 00:05:04;;;;;;;2.95;1.90;;;;;;;;;;5005595;28;20565;-58
2021/07/07 00:07:32;;;;;;;2.97;1.67;;;;;;;;;;5005775;28;20466;-58
2021/07/07 00:10:00;;;;;;;4.93;1.60;;;;;;;;;;5016141;28;20144;-58
2021/07/07 00:12:30;;;;;;;3.10;1.65;;;;;;;;;;5017437;28;20054;-58
2021/07/07 00:14:59;;;;;;;2.92;2.13;;;;;;;;;;5017465;28;20045;-59
2021/07/07 00:17:27;;;;;;;2.70;1.60;;;;;;;;;;5013478;28;20138;-58
2021/07/07 00:19:56;;;;;;;3.15;1.60;;;;;;;;;;5012905;28;20807;-58
2021/07/07 00:22:24;;;;;;;2.88;1.80;;;;;;;;;;5005843;28;20080;-58
2021/07/07 00:24:52;;;;;;;3.50;1.77;;;;;;;;;;5024101;28;20136;-58
2021/07/07 00:27:21;;;;;;;3.20;1.83;;;;;;;;;;4999622;28;20046;-59
2021/07/07 00:29:51;;;;;;;4.30;1.40;;;;;;;;;;5007017;28;20134;-58
2021/07/07 00:32:19;;;;;;;4.55;1.40;;;;;;;;;;5012259;28;20146;-58
2021/07/07 00:34:47;;;;;;;4.97;1.50;;;;;;;;;;5016960;28;20132;-58
2021/07/07 00:37:16;;;;;;;2.70;1.48;;;;;;;;;;5032701;28;20092;-58
2021/07/07 00:39:44;;;;;;;5.28;1.65;;;;;;;;;;5018008;28;20133;-58
2021/07/07 00:42:12;;;;;;;2.00;1.48;;;;;;;;;;5014937;28;20109;-58
2021/07/07 00:44:41;;;;;;;3.08;1.58;;;;;;;;;;5019648;28;20042;-58
2021/07/07 00:47:11;;;;;;;2.95;1.50;;;;;;;;;;4992909;28;20056;-58
2021/07/07 00:49:40;;;;;;;2.75;1.40;;;;;;;;;;5007048;28;20153;-58
2021/07/07 00:52:08;;;;;;;4.22;1.40;;;;;;;;;;5016616;28;20068;-58
2021/07/07 00:54:37;;;;;;;2.42;1.30;;;;;;;;;;5024033;28;20049;-59
2021/07/07 00:57:06;;;;;;;2.22;1.30;;;;;;;;;;5016808;28;20062;-60
2021/07/07 00:59:34;;;;;;;2.22;1.40;;;;;;;;;;5006557;28;20056;-59
2021/07/07 01:02:04;;;;;;;2.03;1.77;;;;;;;;;;5012183;28;20561;-59
2021/07/07 01:04:34;;;;;;;3.28;1.35;;;;;;;;;;5008731;28;20057;-59
2021/07/07 01:07:03;;;;;;;2.40;1.30;;;;;;;;;;5010870;28;20046;-59
2021/07/07 01:09:31;;;;;;;6.57;1.27;;;;;;;;;;5010689;28;20401;-60
2021/07/07 01:11:59;;;;;;;2.13;1.00;;;;;;;;;;5011613;28;20085;-60
2021/07/07 01:14:27;;;;;;;3.28;1.60;;;;;;;;;;4996427;28;20414;-59
2021/07/07 01:16:56;;;;;;;3.50;1.25;;;;;;;;;;5007229;28;20046;-59
2021/07/07 01:19:24;;;;;;;3.08;1.40;;;;;;;;;;5007322;28;20103;-59
2021/07/07 01:21:54;;;;;;;4.97;1.50;;;;;;;;;;5005516;28;20121;-59
2021/07/07 01:24:22;;;;;;;1.50;1.20;;;;;;;;;;5002128;28;20496;-59
2021/07/07 01:26:50;;;;;;;1.98;1.35;;;;;;;;;;5007767;28;20409;-59
2021/07/07 01:29:19;;;;;;;2.25;1.30;;;;;;;;;;5008943;28;20149;-59
2021/07/07 01:31:47;;;;;;;3.10;1.20;;;;;;;;;;5011096;28;20081;-59
2021/07/07 01:34:15;;;;;;;1.75;1.35;;;;;;;;;;5010264;28;20483;-60
2021/07/07 01:36:43;;;;;;;2.55;1.25;;;;;;;;;;5007268;28;20572;-59
2021/07/07 01:39:13;;;;;;;3.72;1.42;;;;;;;;;;5011170;28;20054;-60
2021/07/07 01:41:41;;;;;;;3.05;1.10;;;;;;;;;;5011166;28;20120;-59
2021/07/07 01:44:10;;;;;;;1.75;1.25;;;;;;;;;;5010926;28;20528;-60
2021/07/07 01:46:38;;;;;;;1.70;1.08;;;;;;;;;;5009567;28;20068;-59
2021/07/07 01:49:06;;;;;;;3.90;1.40;;;;;;;;;;5010834;28;20046;-59
2021/07/07 01:51:36;;;;;;;1.42;1.20;;;;;;;;;;5010761;28;20153;-59
2021/07/07 01:54:04;;;;;;;5.22;1.40;;;;;;;;;;5010872;28;20046;-59
2021/07/07 01:56:34;;;;;;;3.05;1.20;;;;;;;;;;5013306;28;20045;-59
2021/07/07 01:59:03;;;;;;;2.58;1.20;;;;;;;;;;5011399;28;20048;-59
2021/07/07 02:01:31;;;;;;;2.33;1.10;;;;;;;;;;5012437;28;20091;-60
2021/07/07 02:04:00;;;;;;;1.30;1.20;;;;;;;;;;5010684;28;20050;-59
2021/07/07 02:06:29;;;;;;;1.20;1.10;;;;;;;;;;4978409;28;20418;-57
2021/07/07 02:08:57;;;;;;;1.63;1.10;;;;;;;;;;4992743;28;20057;-57
2021/07/07 02:11:26;;;;;;;1.77;1.30;;;;;;;;;;4986762;28;20126;-57
2021/07/07 02:13:55;;;;;;;4.47;1.13;;;;;;;;;;4973032;28;20507;-57
2021/07/07 02:16:24;;;;;;;3.05;1.05;;;;;;;;;;5010236;28;20128;-58
2021/07/07 02:18:52;;;;;;;3.25;1.30;;;;;;;;;;5015107;28;20092;-58
2021/07/07 02:21:20;;;;;;;1.50;1.30;;;;;;;;;;5013846;28;20077;-58
2021/07/07 02:23:49;;;;;;;2.28;1.27;;;;;;;;;;5015076;28;20109;-59
2021/07/07 02:26:17;;;;;;;2.50;1.30;;;;;;;;;;5013240;28;20081;-58
2021/07/07 02:28:45;;;;;;;4.47;1.52;;;;;;;;;;5012809;28;20456;-58
2021/07/07 02:31:15;;;;;;;2.25;1.25;;;;;;;;;;5013990;28;20565;-58
2021/07/07 02:33:43;;;;;;;3.28;1.20;;;;;;;;;;5014965;28;20129;-59
2021/07/07 02:36:12;;;;;;;2.38;1.42;;;;;;;;;;5014148;28;20076;-58
2021/07/07 02:38:40;;;;;;;5.22;1.17;;;;;;;;;;5014219;28;20118;-58
2021/07/07 02:41:08;;;;;;;1.48;1.05;;;;;;;;;;5014547;28;20470;-58
2021/07/07 02:43:36;;;;;;;2.42;1.23;;;;;;;;;;5013662;28;20397;-58
2021/07/07 02:46:05;;;;;;;2.63;1.10;;;;;;;;;;5012612;28;20069;-59
2021/07/07 02:48:34;;;;;;;2.13;1.20;;;;;;;;;;5013864;28;20070;-58
2021/07/07 02:51:03;;;;;;;5.35;1.33;;;;;;;;;;5013810;28;20048;-58
2021/07/07 02:53:31;;;;;;;2.92;1.25;;;;;;;;;;5012836;28;20141;-58
2021/07/07 02:55:59;;;;;;;3.03;1.20;;;;;;;;;;5013582;28;20077;-58
2021/07/07 02:58:27;;;;;;;2.22;1.10;;;;;;;;;;5014011;28;20457;-58
2021/07/07 03:00:56;;;;;;;1.95;1.30;;;;;;;;;;5014762;28;20137;-59
2021/07/07 03:03:25;;;;;;;2.53;1.10;;;;;;;;;;5014041;28;20504;-58
2021/07/07 03:05:55;;;;;;;3.15;1.40;;;;;;;;;;5015372;28;20137;-58
2021/07/07 03:08:24;;;;;;;6.47;1.40;;;;;;;;;;5007256;28;20080;-59
2021/07/07 03:10:53;;;;;;;2.42;1.38;;;;;;;;;;5017013;28;20054;-58
2021/07/07 03:13:22;;;;;;;5.00;1.50;;;;;;;;;;5015847;28;20046;-58
2021/07/07 03:15:51;;;;;;;5.00;1.50;;;;;;;;;;5015681;28;20050;-58
2021/07/07 03:18:21;;;;;;;3.42;1.50;;;;;;;;;;5014583;28;20128;-58
2021/07/07 03:20:50;;;;;;;2.22;1.35;;;;;;;;;;5014082;28;20050;-58
2021/07/07 03:23:21;;;;;;;1.98;1.30;;;;;;;;;;5012698;28;20589;-58
2021/07/07 03:25:50;;;;;;;5.32;1.58;;;;;;;;;;5012462;28;20477;-58
2021/07/07 03:28:19;;;;;;;1.77;1.42;;;;;;;;;;5014591;28;20117;-58
2021/07/07 03:30:48;;;;;;;1.58;1.20;;;;;;;;;;5012618;28;20148;-59
2021/07/07 03:33:17;;;;;;;1.63;1.35;;;;;;;;;;5013272;28;20054;-58
2021/07/07 03:35:45;;;;;;;2.03;1.80;;;;;;;;;;5013465;28;20339;-58
2021/07/07 03:38:13;;;;;;;1.92;1.40;;;;;;;;;;5013990;28;20049;-58
2021/07/07 03:40:43;;;;;;;4.90;1.42;;;;;;;;;;5012913;28;20508;-58
2021/07/07 03:43:12;;;;;;;2.33;1.63;;;;;;;;;;5013397;28;20052;-58
2021/07/07 03:45:40;;;;;;;3.30;1.80;;;;;;;;;;5020358;28;20125;-58
2021/07/07 03:48:09;;;;;;;4.07;1.50;;;;;;;;;;5013740;28;20052;-58
2021/07/07 03:50:39;;;;;;;2.72;1.40;;;;;;;;;;5013082;28;20084;-58
2021/07/07 03:53:07;;;;;;;3.10;1.38;;;;;;;;;;5013565;28;20054;-58
2021/07/07 03:55:36;;;;;;;5.40;1.67;;;;;;;;;;5012657;28;20060;-58
2021/07/07 03:58:05;;;;;;;2.78;1.35;;;;;;;;;;5013076;28;20176;-59
2021/07/07 04:00:34;;;;;;;2.30;1.40;;;;;;;;;;5011212;28;20076;-58
2021/07/07 04:03:03;;;;;;;4.50;1.25;;;;;;;;;;5012534;28;20056;-58
2021/07/07 04:05:31;;;;;;;2.20;1.70;;;;;;;;;;5010060;28;20950;-58
2021/07/07 04:07:59;;;;;;;3.28;1.70;;;;;;;;;;5010691;28;20125;-58
2021/07/07 04:10:28;;;;;;;4.55;2.03;;;;;;;;;;5011229;28;20050;-59
2021/07/07 04:12:56;;;;;;;3.90;1.70;;;;;;;;;;5011495;28;20050;-59
2021/07/07 04:15:26;;;;;;;3.75;1.83;;;;;;;;;;5005729;28;20058;-59
2021/07/07 04:17:54;;;;;;;5.63;2.30;;;;;;;;;;5012712;28;20494;-59
2021/07/07 04:20:23;;;;;;;7.28;1.60;;;;;;;;;;5012184;28;20076;-59
2021/07/07 04:22:52;;;;;;;2.53;1.45;;;;;;;;;;5012789;28;20081;-58
2021/07/07 04:25:20;;;;;;;1.85;1.58;;;;;;;;;;5012337;28;20152;-58
2021/07/07 04:27:48;;;;;;;4.47;1.60;;;;;;;;;;5011393;28;20132;-59
2021/07/07 04:30:19;;;;;;;2.65;1.73;;;;;;;;;;5012596;28;20056;-58
2021/07/07 04:32:49;;;;;;;3.47;1.88;;;;;;;;;;5012117;28;20127;-58
2021/07/07 04:35:17;;;;;;;5.57;2.10;;;;;;;;;;5021045;28;20056;-58
2021/07/07 04:37:46;;;;;;;3.80;1.80;;;;;;;;;;5014195;28;20337;-58
2021/07/07 04:40:16;;;;;;;4.05;2.10;;;;;;;;;;5012497;28;20556;-58
2021/07/07 04:42:44;;;;;;;2.78;2.10;;;;;;;;;;5022045;28;20420;-58
2021/07/07 04:45:13;;;;;;;2.15;1.67;;;;;;;;;;5020773;28;20049;-58
2021/07/07 04:47:41;;;;;;;3.38;2.00;;;;;;;;;;5020757;28;20527;-58
2021/07/07 04:50:13;;;;;;;3.42;1.70;;;;;;;;;;5002565;28;20084;-58
2021/07/07 04:52:42;;;;;;;4.63;1.67;;;;;;;;;;5001456;28;20053;-58
2021/07/07 04:55:11;;;;;;;4.80;2.08;;;;;;;;;;5008789;28;20046;-58
2021/07/07 04:57:42;;;;;;;3.60;1.90;;;;;;;;;;5010171;28;20064;-58
2021/07/07 05:00:14;;;;;;;3.25;2.20;;;;;;;;;;5011831;28;20563;-58
2021/07/07 05:02:43;;;;;;;3.28;1.65;;;;;;;;;;5012674;28;20496;-61
2021/07/07 05:05:14;;;;;;;5.53;1.98;;;;;;;;;;5020821;28;20054;-59
2021/07/07 05:07:43;;;;;;;4.68;2.05;;;;;;;;;;5027752;28;20214;-59
2021/07/07 05:10:13;;;;;;;4.47;2.03;;;;;;;;;;4992850;28;20472;-60
2021/07/07 05:12:42;;;;;;;4.35;2.35;;;;;;;;;;4995930;28;20064;-58
2021/07/07 05:15:11;;;;;;;5.07;2.20;;;;;;;;;;5007685;28;20060;-58
2021/07/07 05:17:40;;;;;;;3.47;2.15;;;;;;;;;;5003401;28;20049;-59
2021/07/07 05:20:09;;;;;;;3.65;2.03;;;;;;;;;;5008315;28;20050;-58
2021/07/07 05:22:40;;;;;;;9.40;2.60;;;;;;;;;;5006196;28;20124;-59
2021/07/07 05:25:08;;;;;;;6.10;2.47;;;;;;;;;;4998076;28;20073;-59
2021/07/07 05:27:36;;;;;;;8.02;2.70;;;;;;;;;;5005982;28;20042;-59
2021/07/07 05:30:05;;;;;;;7.97;2.30;;;;;;;;;;5005228;28;20053;-59
2021/07/07 05:32:34;;;;;;;4.78;2.50;;;;;;;;;;5005139;28;20433;-59
2021/07/07 05:35:02;;;;;;;7.82;2.22;;;;;;;;;;5015049;28;20416;-59
2021/07/07 05:37:30;;;;;;;4.28;2.22;;;;;;;;;;5004344;28;20078;-59
2021/07/07 05:40:00;;;;;;;4.38;2.35;;;;;;;;;;5006776;28;20553;-59
2021/07/07 05:42:29;;;;;;;6.30;2.40;;;;;;;;;;5007955;28;20049;-59
2021/07/07 05:44:58;;;;;;;6.82;2.20;;;;;;;;;;5012293;28;20132;-59
2021/07/07 05:47:27;;;;;;;3.92;2.53;;;;;;;;;;5005656;28;20049;-59
2021/07/07 05:49:56;;;;;;;4.88;1.80;;;;;;;;;;4995689;28;20782;-58
2021/07/07 05:52:25;;;;;;;3.72;1.85;;;;;;;;;;4992567;28;20050;-58
2021/07/07 05:54:55;;;;;;;2.00;1.73;;;;;;;;;;5005788;28;20080;-58
2021/07/07 05:57:37;;;;;;;3.67;1.83;;;;;;;;;;5007537;28;20132;-58
2021/07/07 06:00:09;;;;;;;4.03;1.95;;;;;;;;;;5019763;28;20050;-58
2021/07/07 06:02:38;;;;;;;3.63;1.83;;;;;;;;;;5012237;28;20048;-58
2021/07/07 06:05:08;;;;;;;3.50;1.95;;;;;;;;;;5022368;28;20053;-59
2021/07/07 06:07:37;;;;;;;6.63;2.08;;;;;;;;;;5017317;28;20288;-58
2021/07/07 06:10:06;;;;;;;3.42;2.00;;;;;;;;;;5007587;28;20107;-58
2021/07/07 06:12:36;;;;;;;4.38;1.92;;;;;;;;;;5025547;28;20077;-59
2021/07/07 06:15:05;;;;;;;4.20;1.80;;;;;;;;;;5021837;28;20053;-59
2021/07/07 06:17:34;;;;;;;7.85;2.00;;;;;;;;;;4993355;28;20050;-59
2021/07/07 06:20:04;;;;;;;6.05;1.90;;;;;;;;;;5003770;28;20139;-59
2021/07/07 06:22:33;;;;;;;2.10;1.80;;;;;;;;;;5013174;28;20053;-60
2021/07/07 06:25:01;;;;;;;2.80;1.92;;;;;;;;;;5008429;28;20417;-58
2021/07/07 06:27:30;;;;;;;6.18;2.25;;;;;;;;;;5006953;28;20455;-58
2021/07/07 06:30:00;;;;;;;4.70;2.22;;;;;;;;;;4995010;28;20128;-58
2021/07/07 06:32:28;;;;;;;4.45;2.45;;;;;;;;;;5008664;28;20113;-59
2021/07/07 06:35:00;;;;;;;5.20;2.00;;;;;;;;;;5012733;28;20503;-59
2021/07/07 06:37:29;;;;;;;4.57;2.17;;;;;;;;;;4997674;28;20050;-58
2021/07/07 06:40:01;;;;;;;4.75;2.03;;;;;;;;;;5002435;28;20155;-58
2021/07/07 06:42:29;;;;;;;3.75;2.13;;;;;;;;;;4999349;28;20089;-58
2021/07/07 06:45:00;;;;;;;7.07;1.85;;;;;;;;;;4999374;28;20499;-59
2021/07/07 06:47:28;;;;;;;3.03;1.58;;;;;;;;;;4980063;28;20110;-59
2021/07/07 06:49:56;;;;;;;4.80;2.20;;;;;;;;;;4987210;28;20552;-59
2021/07/07 06:52:25;;;;;;;4.63;1.80;;;;;;;;;;4978757;28;20562;-58
2021/07/07 06:54:53;;;;;;;1.75;1.38;;;;;;;;;;4996322;28;20062;-58
2021/07/07 06:57:21;;;;;;;3.05;2.00;;;;;;;;;;4984882;28;20129;-59
2021/07/07 06:59:50;;;;;;;5.10;2.20;;;;;;;;;;4985263;28;20124;-59
2021/07/07 07:02:20;;;;;;;2.47;1.70;;;;;;;;;;4977531;28;20543;-59
2021/07/07 07:04:49;;;;;;;2.45;1.98;;;;;;;;;;4974917;28;20058;-59
2021/07/07 07:07:17;;;;;;;4.05;1.50;;;;;;;;;;4979562;28;20166;-59
2021/07/07 07:09:46;;;;;;;3.22;1.70;;;;;;;;;;4978660;28;20058;-59
2021/07/07 07:12:14;;;;;;;7.43;2.00;;;;;;;;;;4989921;28;20046;-59
2021/07/07 07:14:43;;;;;;;2.33;1.50;;;;;;;;;;4985351;28;20100;-58
2021/07/07 07:17:12;;;;;;;4.32;1.92;;;;;;;;;;4971408;28;20051;-59
2021/07/07 07:19:41;;;;;;;1.73;1.60;;;;;;;;;;4972592;28;20614;-59
2021/07/07 07:22:10;;;;;;;3.78;1.35;;;;;;;;;;4987944;28;20729;-58
2021/07/07 07:24:39;;;;;;;3.33;1.70;;;;;;;;;;4983146;28;20781;-59
2021/07/07 07:27:08;;;;;;;1.75;1.42;;;;;;;;;;5005516;28;20506;-58
2021/07/07 07:29:37;;;;;;;4.25;2.03;;;;;;;;;;5009388;28;20057;-58
2021/07/07 07:32:06;;;;;;;3.33;1.85;;;;;;;;;;5008679;28;20409;-58
2021/07/07 07:34:34;;;;;;;2.30;1.83;;;;;;;;;;5010443;28;20057;-58
2021/07/07 07:37:05;;;;;;;3.25;2.00;;;;;;;;;;5014832;28;20054;-58
2021/07/07 07:39:41;;;;;;;2.60;1.67;;;;;;;;;;5020117;28;20054;-58
2021/07/07 07:42:12;;;;;;;1.55;1.40;;;;;;;;;;5009285;28;20062;-58
2021/07/07 07:44:41;;;;;;;3.85;1.67;;;;;;;;;;5010274;28;20042;-58
2021/07/07 07:47:10;;;;;;;3.17;1.73;;;;;;;;;;5015053;28;20058;-58
2021/07/07 07:49:58;;;;;;;3.30;1.67;;;;;;;;;;5017560;28;20151;-58
2021/07/07 07:52:28;;;;;;;2.63;1.70;;;;;;;;;;5006167;28;20529;-59
2021/07/07 07:54:57;;;;;;;2.55;1.58;;;;;;;;;;5027279;28;20049;-59
2021/07/07 07:57:25;;;;;;;3.58;1.60;;;;;;;;;;5015665;28;20095;-58
2021/07/07 07:59:53;;;;;;;2.92;2.08;;;;;;;;;;5016644;28;20490;-59
2021/07/07 08:02:22;;;;;;;3.17;1.80;;;;;;;;;;5010685;28;20111;-58
2021/07/07 08:04:51;;;;;;;2.80;1.73;;;;;;;;;;5010861;28;20069;-58
2021/07/07 08:07:20;;;;;;;2.60;1.92;;;;;;;;;;5006236;28;20501;-59
2021/07/07 08:09:50;;;;;;;2.22;1.70;;;;;;;;;;5008668;28;20081;-59
2021/07/07 08:12:19;;;;;;;2.88;1.95;;;;;;;;;;5008484;28;20046;-59
2021/07/07 08:14:50;;;;;;;2.50;1.70;;;;;;;;;;5004709;28;20160;-59
2021/07/07 08:17:19;;;;;;;3.63;2.60;;;;;;;;;;5009391;28;20037;-59
2021/07/07 08:19:48;;;;;;;3.13;2.60;;;;;;;;;;5010039;28;20080;-58
2021/07/07 08:22:17;;;;;;;3.38;2.85;;;;;;;;;;5009880;28;20548;-59
2021/07/07 08:24:46;;;;;;;3.30;2.60;;;;;;;;;;5004572;28;20066;-58
2021/07/07 08:27:16;;;;;;;4.95;2.50;;;;;;;;;;5006667;28;20129;-59
2021/07/07 08:29:45;;;;;;;6.03;2.95;;;;;;;;;;5008001;28;20053;-59
2021/07/07 08:32:13;;;;;;;3.53;3.10;;;;;;;;;;5007536;28;20097;-58
2021/07/07 08:34:42;;;;;;;3.97;2.95;;;;;;;;;;5005713;28;20064;-58
2021/07/07 08:37:13;;;;;;;4.80;2.67;;;;;;;;;;5002161;28;20136;-58
2021/07/07 08:39:41;;;;;;;4.78;2.88;;;;;;;;;;5005980;28;20136;-58
2021/07/07 08:42:10;;;;;;;10.93;2.83;;;;;;;;;;5009025;28;20460;-58
2021/07/07 08:44:40;;;;;;;3.30;2.72;;;;;;;;;;5007698;28;20061;-58
2021/07/07 08:47:09;;;;;;;5.25;2.90;;;;;;;;;;5007701;28;20046;-59
2021/07/07 08:49:38;;;;;;;4.18;3.78;;;;;;;;;;5008570;28;20141;-59
2021/07/07 08:52:06;;;;;;;4.45;3.10;;;;;;;;;;5009517;28;20141;-59
2021/07/07 08:54:35;;;;;;;5.43;3.10;;;;;;;;;;5008186;28;20049;-59
2021/07/07 08:57:07;;;;;;;5.50;3.30;;;;;;;;;;5005536;28;20057;-59
2021/07/07 08:59:36;;;;;;;3.58;2.88;;;;;;;;;;5009573;28;20383;-59
2021/07/07 09:02:07;;;;;;;4.88;3.10;;;;;;;;;;5010351;28;20077;-59
2021/07/07 09:04:37;;;;;;;3.78;2.83;;;;;;;;;;5010050;28;20042;-59
2021/07/07 09:07:07;;;;;;;4.90;3.15;;;;;;;;;;5003940;28;20042;-59
2021/07/07 09:09:39;;;;;;;5.18;3.00;;;;;;;;;;5008557;28;20049;-58
2021/07/07 09:12:16;;;;;;;3.10;2.60;;;;;;;;;;5009234;28;20049;-58
2021/07/07 09:14:44;;;;;;;5.13;3.22;;;;;;;;;;5014717;28;20152;-58
2021/07/07 09:17:15;;;;;;;3.22;2.55;;;;;;;;;;5012562;28;20053;-58
2021/07/07 09:19:44;;;;;;;4.03;2.72;;;;;;;;;;5005141;28;20057;-58
2021/07/07 09:22:13;;;;;;;3.00;2.70;;;;;;;;;;5005535;28;20054;-58
2021/07/07 09:24:42;;;;;;;3.15;2.72;;;;;;;;;;4995194;28;20131;-59
2021/07/07 09:27:12;;;;;;;5.35;2.70;;;;;;;;;;5009758;28;20131;-58
2021/07/07 09:29:41;;;;;;;3.72;2.80;;;;;;;;;;5009081;28;20054;-58
2021/07/07 09:32:16;;;;;;;3.58;3.05;;;;;;;;;;5016365;28;20053;-58
2021/07/07 09:34:46;;;;;;;4.50;2.58;;;;;;;;;;5007046;28;20072;-58
2021/07/07 09:37:22;;;;;;;4.40;3.65;;;;;;;;;;5009043;28;20128;-59
2021/07/07 09:39:51;;;;;;;3.00;2.60;;;;;;;;;;5008280;28;20046;-59
2021/07/07 09:42:26;;;;;;;6.05;3.13;;;;;;;;;;5003825;28;20053;-59
2021/07/07 09:44:57;;;;;;;3.33;3.03;;;;;;;;;;5007788;28;20058;-59
2021/07/07 09:47:28;;;;;;;3.75;3.05;;;;;;;;;;5009442;28;20065;-58
2021/07/07 09:49:59;;;;;;;4.80;3.33;;;;;;;;;;5008127;28;20077;-58
2021/07/07 09:52:28;;;;;;;3.88;2.90;;;;;;;;;;5008327;28;20050;-58
2021/07/07 09:54:58;;;;;;;3.58;3.10;;;;;;;;;;5006019;28;20390;-59
2021/07/07 09:57:26;;;;;;;4.05;2.95;;;;;;;;;;5002779;28;20641;-59
2021/07/07 09:59:55;;;;;;;3.03;2.60;;;;;;;;;;5008054;28;20064;-58
2021/07/07 10:02:23;;;;;;;3.22;2.92;;;;;;;;;;5008566;28;20076;-58
2021/07/07 10:04:53;;;;;;;3.58;2.60;;;;;;;;;;5002898;28;20057;-58
2021/07/07 10:07:22;;;;;;;4.25;2.25;;;;;;;;;;5006241;28;20077;-58
2021/07/07 10:09:51;;;;;;;4.30;2.30;;;;;;;;;;5003256;28;20073;-59
2021/07/07 10:12:20;;;;;;;2.53;2.20;;;;;;;;;;5007486;28;20128;-59
2021/07/07 10:14:49;;;;;;;2.45;2.10;;;;;;;;;;5005331;28;20050;-59
2021/07/07 10:17:17;;;;;;;2.47;1.90;;;;;;;;;;5006197;28;20080;-58
2021/07/07 10:19:46;;;;;;;3.63;1.92;;;;;;;;;;5006981;28;20057;-58
2021/07/07 10:22:17;;;;;;;2.83;2.03;;;;;;;;;;5006668;28;20068;-58
2021/07/07 10:24:45;;;;;;;8.57;2.10;;;;;;;;;;5004229;28;20428;-59
2021/07/07 10:27:14;;;;;;;2.03;1.77;;;;;;;;;;5000764;28;20046;-59
2021/07/07 10:30:01;;;;;;;1.83;1.65;;;;;;;;;;5005988;28;20199;-59
2021/07/07 10:32:30;;;;;;;2.53;1.95;;;;;;;;;;5004785;28;20060;-59
2021/07/07 10:35:04;;;;;;;4.68;2.00;;;;;;;;;;5007638;28;20085;-59
2021/07/07 10:37:35;;;;;;;2.75;2.33;;;;;;;;;;5010025;28;20081;-59
2021/07/07 10:40:21;;;;;;;1.85;1.63;;;;;;;;;;5006521;28;20199;-59
2021/07/07 10:42:49;;;;;;;2.03;1.73;;;;;;;;;;5009233;28;20046;-59
2021/07/07 10:45:31;;;;;;;1.92;1.70;;;;;;;;;;5010024;28;20054;-58
2021/07/07 10:48:14;;;;;;;1.95;1.70;;;;;;;;;;5003542;28;20137;-58
2021/07/07 10:50:43;;;;;;;3.45;2.03;;;;;;;;;;5009288;28;20046;-59
2021/07/07 10:53:24;;;;;;;3.85;2.17;;;;;;;;;;4998331;28;20058;-58
2021/07/07 10:55:52;;;;;;;2.35;1.63;;;;;;;;;;5007749;28;20050;-59
2021/07/07 10:58:24;;;;;;;2.33;1.73;;;;;;;;;;5011057;28;20056;-58
2021/07/07 11:00:53;;;;;;;5.50;1.80;;;;;;;;;;5012714;28;20156;-58
2021/07/07 11:03:35;;;;;;;6.47;1.67;;;;;;;;;;5007472;28;20050;-58
2021/07/07 11:06:22;;;;;;;2.85;2.05;;;;;;;;;;5008626;28;20054;-59
2021/07/07 11:08:53;;;;;;;6.10;1.90;;;;;;;;;;4995519;28;20142;-59
2021/07/07 11:11:25;;;;;;;5.13;1.55;;;;;;;;;;5004958;28;20414;-59
2021/07/07 11:13:55;;;;;;;3.28;1.60;;;;;;;;;;5010532;28;20121;-60
2021/07/07 11:16:24;;;;;;;3.17;1.60;;;;;;;;;;5014076;28;20064;-60
2021/07/07 11:18:53;;;;;;;1.88;1.50;;;;;;;;;;5017152;28;20859;-59
2021/07/07 11:21:21;;;;;;;2.92;1.42;;;;;;;;;;5008625;28;20046;-59
2021/07/07 11:23:50;;;;;;;3.15;1.60;;;;;;;;;;5006333;28;20149;-59
2021/07/07 11:26:20;;;;;;;1.70;1.30;;;;;;;;;;5006000;28;20402;-60
2021/07/07 11:28:48;;;;;;;1.55;1.40;;;;;;;;;;5010586;28;20050;-59
2021/07/07 11:31:17;;;;;;;3.45;1.45;;;;;;;;;;4996899;28;20124;-61
2021/07/07 11:33:45;;;;;;;4.10;1.30;;;;;;;;;;5007317;28;20453;-59
2021/07/07 11:36:14;;;;;;;2.63;1.40;;;;;;;;;;5009571;28;20053;-59
2021/07/07 11:38:43;;;;;;;8.77;1.65;;;;;;;;;;4998034;28;20058;-60
2021/07/07 11:41:15;;;;;;;2.67;1.15;;;;;;;;;;5011246;28;20061;-60
2021/07/07 11:43:45;;;;;;;3.47;1.40;;;;;;;;;;5002513;28;20511;-60
2021/07/07 11:46:14;;;;;;;3.53;1.33;;;;;;;;;;5009970;28;20092;-60
2021/07/07 11:48:44;;;;;;;2.80;1.20;;;;;;;;;;5004649;28;20058;-60
2021/07/07 11:51:16;;;;;;;2.00;1.30;;;;;;;;;;5012240;28;20065;-60
2021/07/07 11:53:46;;;;;;;4.57;1.30;;;;;;;;;;5007514;28;20053;-60
2021/07/07 11:56:16;;;;;;;3.25;1.13;;;;;;;;;;5003435;28;20385;-60
2021/07/07 11:58:47;;;;;;;3.40;0.90;;;;;;;;;;5006394;28;20058;-60
2021/07/07 12:01:17;;;;;;;1.08;0.98;;;;;;;;;;5003814;28;20073;-60
2021/07/07 12:03:56;;;;;;;1.42;1.33;;;;;;;;;;4996113;28;20054;-60
2021/07/07 12:06:32;;;;;;;2.85;1.13;;;;;;;;;;5003330;28;20057;-59
2021/07/07 12:09:01;;;;;;;4.32;1.23;;;;;;;;;;5009281;28;20057;-60
2021/07/07 12:11:29;;;;;;;4.38;1.05;;;;;;;;;;5009487;28;20172;-60
2021/07/07 12:14:03;;;;;;;1.30;1.20;;;;;;;;;;5007907;28;20137;-60
2021/07/07 12:16:33;;;;;;;1.10;1.00;;;;;;;;;;5027591;28;20603;-59
2021/07/07 12:19:03;;;;;;;2.53;1.13;;;;;;;;;;5010417;28;20107;-59
2021/07/07 12:21:32;;;;;;;4.38;1.25;;;;;;;;;;5012562;28;20046;-59
2021/07/07 12:24:01;;;;;;;2.70;1.40;;;;;;;;;;5025265;28;20049;-59
2021/07/07 12:26:31;;;;;;;2.72;1.10;;;;;;;;;;5007747;28;20108;-59
2021/07/07 12:29:02;;;;;;;1.70;1.20;;;;;;;;;;5011389;28;20477;-58
2021/07/07 12:31:32;;;;;;;1.30;1.20;;;;;;;;;;5008712;28;20109;-59
2021/07/07 12:34:01;;;;;;;1.85;0.95;;;;;;;;;;5015568;28;20132;-59
2021/07/07 12:36:31;;;;;;;1.52;1.10;;;;;;;;;;5009340;28;20096;-59
2021/07/07 12:39:00;;;;;;;1.27;1.17;;;;;;;;;;5019255;28;20080;-59
2021/07/07 12:41:34;;;;;;;2.40;1.02;;;;;;;;;;5009551;28;20053;-59
2021/07/07 12:44:09;;;;;;;1.70;1.00;;;;;;;;;;5015062;28;20057;-59
2021/07/07 12:46:53;;;;;;;1.90;1.00;;;;;;;;;;5025973;28;20393;-58
2021/07/07 12:49:36;;;;;;;3.90;1.23;;;;;;;;;;4993053;28;20089;-59
2021/07/07 12:52:28;;;;;;;2.70;1.13;;;;;;;;;;5009575;28;20493;-59
2021/07/07 12:55:01;;;;;;;2.45;1.65;;;;;;;;;;4993802;28;20052;-58
2021/07/07 12:57:43;;;;;;;3.55;1.15;;;;;;;;;;5007899;28;20504;-59
2021/07/07 13:00:15;;;;;;;1.52;1.20;;;;;;;;;;4998851;28;20065;-60
2021/07/07 13:02:51;;;;;;;3.80;1.30;;;;;;;;;;5009287;28;20042;-59
2021/07/07 13:05:20;;;;;;;2.03;1.30;;;;;;;;;;5007075;28;20061;-59
2021/07/07 13:07:56;;;;;;;2.50;1.10;;;;;;;;;;5026828;28;20052;-59
2021/07/07 13:10:29;;;;;;;1.48;1.00;;;;;;;;;;5010138;28;20050;-58
2021/07/07 13:12:57;;;;;;;1.52;1.00;;;;;;;;;;5024191;28;20088;-58
2021/07/07 13:15:27;;;;;;;1.42;0.93;;;;;;;;;;5025153;28;20497;-59
2021/07/07 13:17:59;;;;;;;1.88;0.95;;;;;;;;;;5021581;28;20402;-58
2021/07/07 13:20:28;;;;;;;3.42;1.10;;;;;;;;;;5027351;28;20046;-58
2021/07/07 13:23:00;;;;;;;1.58;1.00;;;;;;;;;;5021995;28;20067;-59
2021/07/07 13:25:30;;;;;;;3.35;1.00;;;;;;;;;;5024561;28;20469;-59
2021/07/07 13:27:59;;;;;;;1.00;0.90;;;;;;;;;;5031045;28;20132;-60
2021/07/07 13:30:30;;;;;;;1.95;1.30;;;;;;;;;;5028120;28;20053;-61
2021/07/07 13:32:58;;;;;;;1.05;0.90;;;;;;;;;;5026227;28;20133;-59
2021/07/07 13:35:27;;;;;;;2.97;1.30;;;;;;;;;;5020213;28;20571;-59
2021/07/07 13:37:55;;;;;;;0.98;0.90;;;;;;;;;;5014492;28;20046;-59
2021/07/07 13:40:24;;;;;;;1.17;1.00;;;;;;;;;;5026546;28;20449;-59
2021/07/07 13:42:52;;;;;;;1.10;1.00;;;;;;;;;;5023963;28;20053;-59
2021/07/07 13:45:21;;;;;;;3.08;1.55;;;;;;;;;;5025668;28;20148;-59
2021/07/07 13:47:51;;;;;;;2.42;1.00;;;;;;;;;;5028043;28;20123;-59
2021/07/07 13:50:21;;;;;;;1.75;1.23;;;;;;;;;;5015691;28;20108;-59
2021/07/07 13:52:49;;;;;;;2.17;0.95;;;;;;;;;;5013475;28;20049;-60
2021/07/07 13:55:18;;;;;;;3.17;0.90;;;;;;;;;;5027864;28;20041;-60
2021/07/07 13:57:47;;;;;;;1.55;0.73;;;;;;;;;;5034851;28;20155;-60
2021/07/07 14:00:16;;;;;;;1.85;0.90;;;;;;;;;;5034927;28;20085;-59
2021/07/07 14:02:45;;;;;;;1.00;0.90;;;;;;;;;;5021920;28;20053;-59
2021/07/07 14:05:15;;;;;;;2.17;0.90;;;;;;;;;;5032013;28;20085;-59
2021/07/07 14:07:44;;;;;;;2.90;0.90;;;;;;;;;;5034326;28;20089;-59
2021/07/07 14:10:14;;;;;;;2.85;1.00;;;;;;;;;;5030681;28;20124;-59
2021/07/07 14:12:42;;;;;;;1.00;0.82;;;;;;;;;;5032527;28;20037;-59
2021/07/07 14:15:12;;;;;;;6.70;1.00;;;;;;;;;;5027924;28;20050;-59
2021/07/07 14:17:41;;;;;;;4.57;1.13;;;;;;;;;;5034506;28;20587;-60
2021/07/07 14:20:10;;;;;;;1.48;0.90;;;;;;;;;;5033791;28;20045;-59
2021/07/07 14:22:41;;;;;;;2.35;1.20;;;;;;;;;;5028523;28;20045;-60
2021/07/07 14:25:11;;;;;;;4.00;0.95;;;;;;;;;;5037206;28;20162;-59
2021/07/07 14:27:39;;;;;;;1.38;1.02;;;;;;;;;;5021663;28;20045;-59
2021/07/07 14:30:09;;;;;;;1.98;0.98;;;;;;;;;;5022456;28;20049;-59
2021/07/07 14:32:37;;;;;;;0.95;0.80;;;;;;;;;;5030430;28;20111;-59
2021/07/07 14:35:07;;;;;;;1.75;0.98;;;;;;;;;;5029534;28;20049;-60
2021/07/07 14:37:36;;;;;;;5.70;1.02;;;;;;;;;;5022806;28;20104;-59
2021/07/07 14:40:07;;;;;;;1.58;0.80;;;;;;;;;;5026269;28;20123;-59
2021/07/07 14:42:36;;;;;;;5.00;1.02;;;;;;;;;;5018765;28;20136;-59
2021/07/07 14:45:05;;;;;;;4.95;1.05;;;;;;;;;;5026728;28;20049;-59
2021/07/07 14:47:35;;;;;;;2.20;1.23;;;;;;;;;;5029157;28;20050;-59
2021/07/07 14:50:04;;;;;;;1.33;0.93;;;;;;;;;;5029360;28;20041;-59
2021/07/07 14:52:34;;;;;;;1.70;1.00;;;;;;;;;;5029838;28;20074;-59
2021/07/07 14:55:30;;;;;;;1.95;0.93;;;;;;;;;;5028342;28;20057;-59
2021/07/07 14:57:59;;;;;;;1.67;1.15;;;;;;;;;;5030611;28;20396;-59